sensor_id;sensor_type;location;lat;lon;timestamp;pressure;altitude;pressure_sealevel;temperature;humidity
54556;BME280;57291;37.520;15.106;2022-11-20T00:01:54;100475.06;;;18.94;83.01
54556;BME280;57291;37.520;15.106;2022-11-20T00:04:21;100476.31;;;18.96;82.90
54556;BME280;57291;37.520;15.106;2022-11-20T00:06:48;100471.69;;;19.01;82.05
54556;BME280;57291;37.520;15.106;2022-11-20T00:09:16;100467.34;;;19.00;81.88
54556;BME280;57291;37.520;15.106;2022-11-20T00:11:43;100463.41;;;19.01;81.54
54556;BME280;57291;37.520;15.106;2022-11-20T00:14:10;100454.00;;;19.02;81.77
54556;BME280;57291;37.520;15.106;2022-11-20T00:16:37;100452.47;;;19.04;81.29
54556;BME280;57291;37.520;15.106;2022-11-20T00:19:04;100456.03;;;19.05;81.07
54556;BME280;57291;37.520;15.106;2022-11-20T00:21:31;100454.53;;;19.07;80.74
54556;BME280;57291;37.520;15.106;2022-11-20T00:23:59;100450.88;;;19.03;81.11
54556;BME280;57291;37.520;15.106;2022-11-20T00:26:27;100439.34;;;18.97;80.93
54556;BME280;57291;37.520;15.106;2022-11-20T00:28:57;100440.50;;;18.96;80.92
54556;BME280;57291;37.520;15.106;2022-11-20T00:31:25;100447.19;;;18.95;80.87
54556;BME280;57291;37.520;15.106;2022-11-20T00:33:53;100443.19;;;18.93;80.81
54556;BME280;57291;37.520;15.106;2022-11-20T00:36:25;100439.97;;;18.91;80.75
54556;BME280;57291;37.520;15.106;2022-11-20T00:38:57;100433.69;;;18.90;80.68
54556;BME280;57291;37.520;15.106;2022-11-20T00:41:26;100429.25;;;18.86;81.18
54556;BME280;57291;37.520;15.106;2022-11-20T00:43:54;100421.34;;;18.84;81.32
54556;BME280;57291;37.520;15.106;2022-11-20T00:46:24;100421.72;;;18.83;81.57
54556;BME280;57291;37.520;15.106;2022-11-20T00:48:52;100413.38;;;18.79;81.03
54556;BME280;57291;37.520;15.106;2022-11-20T00:51:26;100415.22;;;18.75;81.71
54556;BME280;57291;37.520;15.106;2022-11-20T00:53:57;100409.97;;;18.70;81.77
54556;BME280;57291;37.520;15.106;2022-11-20T00:56:27;100421.72;;;18.67;81.69
54556;BME280;57291;37.520;15.106;2022-11-20T00:58:54;100429.50;;;18.65;81.86
54556;BME280;57291;37.520;15.106;2022-11-20T01:01:24;100418.06;;;18.63;82.25
54556;BME280;57291;37.520;15.106;2022-11-20T01:03:54;100422.69;;;18.59;82.15
54556;BME280;57291;37.520;15.106;2022-11-20T01:06:24;100427.75;;;18.57;82.30
54556;BME280;57291;37.520;15.106;2022-11-20T01:08:54;100424.56;;;18.55;81.93
54556;BME280;57291;37.520;15.106;2022-11-20T01:11:35;100422.09;;;18.49;81.79
54556;BME280;57291;37.520;15.106;2022-11-20T01:14:04;100427.75;;;18.41;81.87
54556;BME280;57291;37.520;15.106;2022-11-20T01:16:34;100428.28;;;18.31;82.41
54556;BME280;57291;37.520;15.106;2022-11-20T01:19:04;100435.47;;;18.19;82.23
54556;BME280;57291;37.520;15.106;2022-11-20T01:21:34;100450.88;;;18.08;83.11
54556;BME280;57291;37.520;15.106;2022-11-20T01:24:04;100462.03;;;17.99;84.05
54556;BME280;57291;37.520;15.106;2022-11-20T01:26:33;100457.97;;;17.93;84.42
54556;BME280;57291;37.520;15.106;2022-11-20T01:29:02;100462.22;;;17.91;84.40
54556;BME280;57291;37.520;15.106;2022-11-20T01:31:35;100469.53;;;17.87;84.28
54556;BME280;57291;37.520;15.106;2022-11-20T01:34:05;100463.53;;;17.81;83.96
54556;BME280;57291;37.520;15.106;2022-11-20T01:36:35;100461.09;;;17.79;83.73
54556;BME280;57291;37.520;15.106;2022-11-20T01:39:06;100477.97;;;17.78;84.15
54556;BME280;57291;37.520;15.106;2022-11-20T01:41:34;100479.41;;;17.75;83.43
54556;BME280;57291;37.520;15.106;2022-11-20T01:44:39;100476.56;;;17.72;82.53
54556;BME280;57291;37.520;15.106;2022-11-20T01:47:09;100478.88;;;17.70;82.11
54556;BME280;57291;37.520;15.106;2022-11-20T01:49:48;100482.78;;;17.69;80.85
54556;BME280;57291;37.520;15.106;2022-11-20T01:52:21;100477.97;;;17.66;79.58
54556;BME280;57291;37.520;15.106;2022-11-20T01:55:00;100473.63;;;17.65;78.38
54556;BME280;57291;37.520;15.106;2022-11-20T01:57:29;100477.06;;;17.62;78.12
54556;BME280;57291;37.520;15.106;2022-11-20T02:00:06;100476.19;;;17.57;78.31
54556;BME280;57291;37.520;15.106;2022-11-20T02:02:48;100473.75;;;17.56;78.58
54556;BME280;57291;37.520;15.106;2022-11-20T02:05:27;100475.25;;;17.53;78.83
54556;BME280;57291;37.520;15.106;2022-11-20T02:07:56;100464.25;;;17.53;78.68
54556;BME280;57291;37.520;15.106;2022-11-20T02:10:25;100460.72;;;17.53;78.77
54556;BME280;57291;37.520;15.106;2022-11-20T02:12:54;100457.28;;;17.56;78.44
54556;BME280;57291;37.520;15.106;2022-11-20T02:15:39;100453.38;;;17.57;78.37
54556;BME280;57291;37.520;15.106;2022-11-20T02:18:07;100446.28;;;17.56;77.57
54556;BME280;57291;37.520;15.106;2022-11-20T02:20:36;100454.28;;;17.61;77.15
54556;BME280;57291;37.520;15.106;2022-11-20T02:23:11;100440.97;;;17.63;76.72
54556;BME280;57291;37.520;15.106;2022-11-20T02:25:41;100432.22;;;17.57;76.15
54556;BME280;57291;37.520;15.106;2022-11-20T02:28:10;100433.09;;;17.62;76.23
54556;BME280;57291;37.520;15.106;2022-11-20T02:30:37;100426.81;;;17.61;75.90
54556;BME280;57291;37.520;15.106;2022-11-20T02:33:04;100425.66;;;17.62;75.93
54556;BME280;57291;37.520;15.106;2022-11-20T02:38:00;100430.81;;;17.64;76.11
54556;BME280;57291;37.520;15.106;2022-11-20T02:40:29;100430.00;;;17.63;76.45
54556;BME280;57291;37.520;15.106;2022-11-20T02:42:56;100418.66;;;17.65;76.57
54556;BME280;57291;37.520;15.106;2022-11-20T02:45:24;100413.88;;;17.62;76.93
54556;BME280;57291;37.520;15.106;2022-11-20T02:47:52;100405.88;;;17.56;77.30
54556;BME280;57291;37.520;15.106;2022-11-20T02:50:19;100409.06;;;17.58;78.19
54556;BME280;57291;37.520;15.106;2022-11-20T02:52:46;100403.13;;;17.56;78.39
54556;BME280;57291;37.520;15.106;2022-11-20T02:55:13;100392.59;;;17.58;78.86
54556;BME280;57291;37.520;15.106;2022-11-20T02:57:41;100392.59;;;17.58;79.63
54556;BME280;57291;37.520;15.106;2022-11-20T03:00:08;100398.88;;;17.59;79.59
54556;BME280;57291;37.520;15.106;2022-11-20T03:02:36;100397.19;;;17.54;79.75
54556;BME280;57291;37.520;15.106;2022-11-20T03:05:03;100397.63;;;17.56;79.92
54556;BME280;57291;37.520;15.106;2022-11-20T03:07:30;100401.53;;;17.55;80.23
54556;BME280;57291;37.520;15.106;2022-11-20T03:09:57;100402.00;;;17.57;79.83
54556;BME280;57291;37.520;15.106;2022-11-20T03:12:24;100397.63;;;17.56;80.12
54556;BME280;57291;37.520;15.106;2022-11-20T03:14:51;100392.41;;;17.51;79.89
54556;BME280;57291;37.520;15.106;2022-11-20T03:17:19;100388.75;;;17.47;79.90
54556;BME280;57291;37.520;15.106;2022-11-20T03:19:46;100386.03;;;17.35;79.86
54556;BME280;57291;37.520;15.106;2022-11-20T03:22:13;100391.34;;;17.28;80.81
54556;BME280;57291;37.520;15.106;2022-11-20T03:24:42;100406.78;;;17.20;81.37
54556;BME280;57291;37.520;15.106;2022-11-20T03:27:09;100405.78;;;17.13;81.57
54556;BME280;57291;37.520;15.106;2022-11-20T03:29:36;100408.34;;;17.05;81.97
54556;BME280;57291;37.520;15.106;2022-11-20T03:32:03;100402.97;;;16.97;81.79
54556;BME280;57291;37.520;15.106;2022-11-20T03:34:30;100403.53;;;16.90;82.47
54556;BME280;57291;37.520;15.106;2022-11-20T03:36:57;100398.75;;;16.87;82.60
54556;BME280;57291;37.520;15.106;2022-11-20T03:39:24;100397.84;;;16.83;82.39
54556;BME280;57291;37.520;15.106;2022-11-20T03:41:52;100396.84;;;16.75;82.46
54556;BME280;57291;37.520;15.106;2022-11-20T03:44:21;100404.94;;;16.72;82.90
54556;BME280;57291;37.520;15.106;2022-11-20T03:46:48;100404.78;;;16.68;83.02
54556;BME280;57291;37.520;15.106;2022-11-20T03:49:15;100400.44;;;16.67;83.30
54556;BME280;57291;37.520;15.106;2022-11-20T03:51:43;100403.19;;;16.67;83.26
54556;BME280;57291;37.520;15.106;2022-11-20T03:54:10;100406.63;;;16.64;83.32
54556;BME280;57291;37.520;15.106;2022-11-20T03:56:38;100408.81;;;16.58;83.26
54556;BME280;57291;37.520;15.106;2022-11-20T03:59:06;100420.47;;;16.55;83.32
54556;BME280;57291;37.520;15.106;2022-11-20T04:01:36;100420.47;;;16.55;83.92
54556;BME280;57291;37.520;15.106;2022-11-20T04:04:12;100422.41;;;16.55;84.02
54556;BME280;57291;37.520;15.106;2022-11-20T04:06:39;100429.81;;;16.54;84.14
54556;BME280;57291;37.520;15.106;2022-11-20T04:09:06;100423.91;;;16.52;84.17
54556;BME280;57291;37.520;15.106;2022-11-20T04:11:37;100429.38;;;16.52;83.96
54556;BME280;57291;37.520;15.106;2022-11-20T04:14:12;100418.75;;;16.51;84.03
54556;BME280;57291;37.520;15.106;2022-11-20T04:16:40;100430.50;;;16.51;84.32
54556;BME280;57291;37.520;15.106;2022-11-20T04:19:12;100420.00;;;16.53;84.36
54556;BME280;57291;37.520;15.106;2022-11-20T04:21:41;100428.47;;;16.60;84.12
54556;BME280;57291;37.520;15.106;2022-11-20T04:24:08;100423.88;;;16.64;84.39
54556;BME280;57291;37.520;15.106;2022-11-20T04:26:37;100427.09;;;16.67;83.96
54556;BME280;57291;37.520;15.106;2022-11-20T04:29:04;100422.88;;;16.69;83.69
54556;BME280;57291;37.520;15.106;2022-11-20T04:31:33;100421.72;;;16.70;83.08
54556;BME280;57291;37.520;15.106;2022-11-20T04:34:06;100422.06;;;16.81;82.26
54556;BME280;57291;37.520;15.106;2022-11-20T04:36:34;100417.06;;;16.83;81.81
54556;BME280;57291;37.520;15.106;2022-11-20T04:39:03;100416.00;;;16.87;80.62
54556;BME280;57291;37.520;15.106;2022-11-20T04:41:34;100410.88;;;16.86;80.52
54556;BME280;57291;37.520;15.106;2022-11-20T04:44:03;100399.09;;;16.85;79.28
54556;BME280;57291;37.520;15.106;2022-11-20T04:46:41;100401.84;;;16.85;79.08
54556;BME280;57291;37.520;15.106;2022-11-20T04:49:08;100390.88;;;16.85;79.13
54556;BME280;57291;37.520;15.106;2022-11-20T04:51:37;100394.41;;;16.86;78.80
54556;BME280;57291;37.520;15.106;2022-11-20T04:54:04;100394.88;;;16.88;78.38
54556;BME280;57291;37.520;15.106;2022-11-20T04:56:31;100401.16;;;16.88;78.35
54556;BME280;57291;37.520;15.106;2022-11-20T04:59:02;100394.72;;;16.84;78.55
54556;BME280;57291;37.520;15.106;2022-11-20T05:01:30;100393.16;;;16.83;78.26
54556;BME280;57291;37.520;15.106;2022-11-20T05:03:57;100391.09;;;16.80;78.08
54556;BME280;57291;37.520;15.106;2022-11-20T05:06:24;100387.91;;;16.78;77.26
54556;BME280;57291;37.520;15.106;2022-11-20T05:08:51;100393.03;;;16.80;76.53
54556;BME280;57291;37.520;15.106;2022-11-20T05:11:20;100400.22;;;16.84;76.29
54556;BME280;57291;37.520;15.106;2022-11-20T05:13:49;100392.56;;;16.90;75.80
54556;BME280;57291;37.520;15.106;2022-11-20T05:16:19;100374.50;;;16.89;75.56
54556;BME280;57291;37.520;15.106;2022-11-20T05:18:47;100389.94;;;16.94;75.17
54556;BME280;57291;37.520;15.106;2022-11-20T05:21:15;100389.69;;;16.99;74.80
54556;BME280;57291;37.520;15.106;2022-11-20T05:23:45;100383.16;;;17.03;74.40
54556;BME280;57291;37.520;15.106;2022-11-20T05:26:17;100390.38;;;17.08;73.86
54556;BME280;57291;37.520;15.106;2022-11-20T05:28:46;100385.41;;;17.14;73.21
54556;BME280;57291;37.520;15.106;2022-11-20T05:31:17;100383.13;;;17.16;73.17
54556;BME280;57291;37.520;15.106;2022-11-20T05:33:52;100383.13;;;17.16;73.10
54556;BME280;57291;37.520;15.106;2022-11-20T05:36:19;100382.78;;;17.17;73.26
54556;BME280;57291;37.520;15.106;2022-11-20T05:38:47;100384.72;;;17.17;73.12
54556;BME280;57291;37.520;15.106;2022-11-20T05:41:18;100386.34;;;17.18;73.23
54556;BME280;57291;37.520;15.106;2022-11-20T05:43:48;100384.38;;;17.18;72.92
54556;BME280;57291;37.520;15.106;2022-11-20T05:46:17;100392.25;;;17.20;72.14
54556;BME280;57291;37.520;15.106;2022-11-20T05:48:50;100397.84;;;17.23;70.97
54556;BME280;57291;37.520;15.106;2022-11-20T05:51:18;100399.03;;;17.22;69.78
54556;BME280;57291;37.520;15.106;2022-11-20T05:53:46;100395.91;;;17.24;69.33
54556;BME280;57291;37.520;15.106;2022-11-20T05:56:19;100404.59;;;17.26;68.79
54556;BME280;57291;37.520;15.106;2022-11-20T05:58:47;100404.59;;;17.26;68.50
54556;BME280;57291;37.520;15.106;2022-11-20T06:03:45;100393.13;;;17.36;68.04
54556;BME280;57291;37.520;15.106;2022-11-20T06:06:14;100391.75;;;17.42;68.03
54556;BME280;57291;37.520;15.106;2022-11-20T06:08:41;100386.44;;;17.49;67.85
54556;BME280;57291;37.520;15.106;2022-11-20T06:11:11;100391.69;;;17.54;66.89
54556;BME280;57291;37.520;15.106;2022-11-20T06:13:39;100389.84;;;17.58;66.58
54556;BME280;57291;37.520;15.106;2022-11-20T06:16:09;100384.34;;;17.58;66.23
54556;BME280;57291;37.520;15.106;2022-11-20T06:18:37;100384.34;;;17.58;66.30
54556;BME280;57291;37.520;15.106;2022-11-20T06:21:05;100383.88;;;17.56;66.79
54556;BME280;57291;37.520;15.106;2022-11-20T06:23:33;100391.44;;;17.59;67.14
54556;BME280;57291;37.520;15.106;2022-11-20T06:26:06;100373.91;;;17.64;66.86
54556;BME280;57291;37.520;15.106;2022-11-20T06:28:34;100364.13;;;17.67;66.37
54556;BME280;57291;37.520;15.106;2022-11-20T06:31:01;100365.16;;;17.74;66.38
54556;BME280;57291;37.520;15.106;2022-11-20T06:33:29;100365.00;;;17.83;66.31
54556;BME280;57291;37.520;15.106;2022-11-20T06:35:58;100361.63;;;17.90;66.17
54556;BME280;57291;37.520;15.106;2022-11-20T06:38:30;100361.00;;;17.96;65.61
54556;BME280;57291;37.520;15.106;2022-11-20T06:40:57;100348.59;;;18.02;65.25
54556;BME280;57291;37.520;15.106;2022-11-20T06:43:25;100345.59;;;18.08;65.63
54556;BME280;57291;37.520;15.106;2022-11-20T06:45:56;100336.72;;;18.14;65.65
54556;BME280;57291;37.520;15.106;2022-11-20T06:48:26;100335.31;;;18.20;65.75
54556;BME280;57291;37.520;15.106;2022-11-20T06:50:53;100331.06;;;18.23;65.61
54556;BME280;57291;37.520;15.106;2022-11-20T06:53:22;100332.34;;;18.29;65.93
54556;BME280;57291;37.520;15.106;2022-11-20T06:55:50;100321.00;;;18.31;65.42
54556;BME280;57291;37.520;15.106;2022-11-20T06:58:18;100309.63;;;18.32;65.86
54556;BME280;57291;37.520;15.106;2022-11-20T07:00:45;100315.94;;;18.33;65.73
54556;BME280;57291;37.520;15.106;2022-11-20T07:03:12;100325.72;;;18.30;65.20
54556;BME280;57291;37.520;15.106;2022-11-20T07:05:40;100326.84;;;18.29;65.25
54556;BME280;57291;37.520;15.106;2022-11-20T07:08:08;100313.47;;;18.27;65.16
54556;BME280;57291;37.520;15.106;2022-11-20T07:10:35;100314.25;;;18.28;65.19
54556;BME280;57291;37.520;15.106;2022-11-20T07:13:02;100312.69;;;18.27;65.30
54556;BME280;57291;37.520;15.106;2022-11-20T07:15:29;100297.03;;;18.31;65.60
54556;BME280;57291;37.520;15.106;2022-11-20T07:18:00;100284.31;;;18.42;66.35
54556;BME280;57291;37.520;15.106;2022-11-20T07:20:27;100287.78;;;18.39;66.17
54556;BME280;57291;37.520;15.106;2022-11-20T07:22:56;100278.41;;;18.40;66.19
54556;BME280;57291;37.520;15.106;2022-11-20T07:25:25;100251.44;;;18.30;66.16
54556;BME280;57291;37.520;15.106;2022-11-20T07:27:53;100247.63;;;18.19;67.16
54556;BME280;57291;37.520;15.106;2022-11-20T07:30:20;100249.06;;;18.13;67.71
54556;BME280;57291;37.520;15.106;2022-11-20T07:32:51;100233.56;;;18.04;68.16
54556;BME280;57291;37.520;15.106;2022-11-20T07:35:19;100222.13;;;18.02;68.50
54556;BME280;57291;37.520;15.106;2022-11-20T07:37:47;100208.28;;;17.99;69.31
54556;BME280;57291;37.520;15.106;2022-11-20T07:40:16;100205.91;;;17.97;69.68
54556;BME280;57291;37.520;15.106;2022-11-20T07:42:53;100198.38;;;17.94;70.93
54556;BME280;57291;37.520;15.106;2022-11-20T07:45:22;100204.13;;;17.89;71.12
54556;BME280;57291;37.520;15.106;2022-11-20T07:47:50;100219.75;;;17.85;71.78
54556;BME280;57291;37.520;15.106;2022-11-20T07:50:19;100259.41;;;17.84;71.75
54556;BME280;57291;37.520;15.106;2022-11-20T07:52:47;100298.22;;;17.83;71.85
54556;BME280;57291;37.520;15.106;2022-11-20T07:55:14;100347.00;;;17.86;72.74
54556;BME280;57291;37.520;15.106;2022-11-20T07:57:41;100414.69;;;17.90;73.48
54556;BME280;57291;37.520;15.106;2022-11-20T08:00:10;100438.22;;;17.47;71.96
54556;BME280;57291;37.520;15.106;2022-11-20T08:02:39;100440.91;;;16.33;78.78
54556;BME280;57291;37.520;15.106;2022-11-20T08:05:08;100363.34;;;15.00;83.20
54556;BME280;57291;37.520;15.106;2022-11-20T08:07:39;100420.94;;;14.44;86.19
54556;BME280;57291;37.520;15.106;2022-11-20T08:10:10;100353.13;;;13.91;85.75
54556;BME280;57291;37.520;15.106;2022-11-20T08:12:52;100312.69;;;13.75;90.47
54556;BME280;57291;37.520;15.106;2022-11-20T08:15:39;100341.13;;;13.74;94.17
54556;BME280;57291;37.520;15.106;2022-11-20T08:18:09;100368.59;;;13.78;95.61
54556;BME280;57291;37.520;15.106;2022-11-20T08:21:01;100392.22;;;13.82;96.73
54556;BME280;57291;37.520;15.106;2022-11-20T08:23:28;100361.97;;;13.88;97.48
54556;BME280;57291;37.520;15.106;2022-11-20T08:25:55;100348.16;;;13.93;98.58
54556;BME280;57291;37.520;15.106;2022-11-20T08:28:23;100312.31;;;13.94;98.63
54556;BME280;57291;37.520;15.106;2022-11-20T08:30:50;100261.41;;;13.90;99.01
54556;BME280;57291;37.520;15.106;2022-11-20T08:33:17;100271.19;;;13.91;99.81
54556;BME280;57291;37.520;15.106;2022-11-20T08:35:45;100270.88;;;13.92;100.00
54556;BME280;57291;37.520;15.106;2022-11-20T08:38:12;100302.78;;;14.00;100.00
54556;BME280;57291;37.520;15.106;2022-11-20T08:40:39;100257.94;;;14.01;100.00
54556;BME280;57291;37.520;15.106;2022-11-20T08:43:06;100178.56;;;13.98;100.00
54556;BME280;57291;37.520;15.106;2022-11-20T08:45:34;100166.56;;;13.90;100.00
54556;BME280;57291;37.520;15.106;2022-11-20T08:48:02;100308.97;;;13.89;100.00
54556;BME280;57291;37.520;15.106;2022-11-20T08:50:30;100357.81;;;13.81;100.00
54556;BME280;57291;37.520;15.106;2022-11-20T08:53:04;100418.88;;;13.77;100.00
54556;BME280;57291;37.520;15.106;2022-11-20T08:55:32;100481.88;;;13.80;100.00
54556;BME280;57291;37.520;15.106;2022-11-20T08:58:03;100505.94;;;13.78;100.00
54556;BME280;57291;37.520;15.106;2022-11-20T09:00:31;100561.72;;;13.77;100.00
54556;BME280;57291;37.520;15.106;2022-11-20T09:02:59;100552.22;;;13.75;100.00
54556;BME280;57291;37.520;15.106;2022-11-20T09:05:28;100512.41;;;13.56;100.00
54556;BME280;57291;37.520;15.106;2022-11-20T09:07:59;100438.34;;;13.41;100.00
54556;BME280;57291;37.520;15.106;2022-11-20T09:10:28;100421.66;;;13.33;100.00
54556;BME280;57291;37.520;15.106;2022-11-20T09:12:56;100391.13;;;13.31;100.00
54556;BME280;57291;37.520;15.106;2022-11-20T09:15:24;100390.50;;;13.34;100.00
54556;BME280;57291;37.520;15.106;2022-11-20T09:17:53;100390.34;;;13.40;100.00
54556;BME280;57291;37.520;15.106;2022-11-20T09:20:21;100400.25;;;13.61;100.00
54556;BME280;57291;37.520;15.106;2022-11-20T09:22:48;100398.94;;;13.85;100.00
54556;BME280;57291;37.520;15.106;2022-11-20T09:25:16;100399.50;;;14.17;100.00
54556;BME280;57291;37.520;15.106;2022-11-20T09:27:43;100387.44;;;14.18;100.00
54556;BME280;57291;37.520;15.106;2022-11-20T09:30:14;100394.97;;;14.21;100.00
54556;BME280;57291;37.520;15.106;2022-11-20T09:32:42;100400.94;;;14.23;97.23
54556;BME280;57291;37.520;15.106;2022-11-20T09:35:10;100405.72;;;14.35;95.91
54556;BME280;57291;37.520;15.106;2022-11-20T09:37:37;100405.50;;;14.40;93.81
54556;BME280;57291;37.520;15.106;2022-11-20T09:40:06;100394.84;;;14.56;95.21
54556;BME280;57291;37.520;15.106;2022-11-20T09:42:49;100379.53;;;14.63;91.86
54556;BME280;57291;37.520;15.106;2022-11-20T09:48:18;100346.94;;;14.79;89.39
54556;BME280;57291;37.520;15.106;2022-11-20T09:55:55;100312.34;;;15.16;86.17
54556;BME280;57291;37.520;15.106;2022-11-20T09:58:45;100307.72;;;15.29;85.16
54556;BME280;57291;37.520;15.106;2022-11-20T10:01:17;100307.16;;;15.23;81.65
54556;BME280;57291;37.520;15.106;2022-11-20T10:04:03;100342.38;;;15.25;80.95
54556;BME280;57291;37.520;15.106;2022-11-20T10:06:34;100352.66;;;15.28;77.11
54556;BME280;57291;37.520;15.106;2022-11-20T10:31:03;100317.59;;;15.88;75.97
54556;BME280;57291;37.520;15.106;2022-11-20T10:33:39;100317.63;;;16.00;76.12
54556;BME280;57291;37.520;15.106;2022-11-20T10:36:46;100296.94;;;16.39;73.52
54556;BME280;57291;37.520;15.106;2022-11-20T10:39:30;100300.66;;;16.59;73.40
54556;BME280;57291;37.520;15.106;2022-11-20T10:42:00;100281.09;;;16.85;72.02
54556;BME280;57291;37.520;15.106;2022-11-20T10:44:29;100276.59;;;16.93;70.03
54556;BME280;57291;37.520;15.106;2022-11-20T10:47:20;100264.63;;;16.73;70.04
54556;BME280;57291;37.520;15.106;2022-11-20T10:49:51;100266.22;;;16.86;70.35
54556;BME280;57291;37.520;15.106;2022-11-20T10:58:10;100248.44;;;16.96;68.13
54556;BME280;57291;37.520;15.106;2022-11-20T11:00:41;100250.25;;;16.64;66.70
54556;BME280;57291;37.520;15.106;2022-11-20T11:03:27;100240.75;;;16.61;65.86
54556;BME280;57291;37.520;15.106;2022-11-20T11:08:36;100246.00;;;16.79;65.17
54556;BME280;57291;37.520;15.106;2022-11-20T11:13:40;100238.31;;;17.13;63.53
54556;BME280;57291;37.520;15.106;2022-11-20T11:16:35;100234.97;;;17.35;62.95
54556;BME280;57291;37.520;15.106;2022-11-20T11:19:10;100231.34;;;17.63;62.93
54556;BME280;57291;37.520;15.106;2022-11-20T11:21:46;100227.19;;;17.69;63.73
54556;BME280;57291;37.520;15.106;2022-11-20T11:24:29;100225.59;;;17.68;63.43
54556;BME280;57291;37.520;15.106;2022-11-20T11:27:14;100240.50;;;17.83;63.55
54556;BME280;57291;37.520;15.106;2022-11-20T11:29:45;100235.38;;;17.81;62.36
54556;BME280;57291;37.520;15.106;2022-11-20T11:32:20;100250.09;;;17.89;62.25
54556;BME280;57291;37.520;15.106;2022-11-20T11:35:06;100254.53;;;17.77;62.59
54556;BME280;57291;37.520;15.106;2022-11-20T11:37:36;100258.50;;;17.80;60.69
54556;BME280;57291;37.520;15.106;2022-11-20T11:40:05;100248.47;;;17.56;60.35
54556;BME280;57291;37.520;15.106;2022-11-20T11:42:57;100240.34;;;17.16;60.08
54556;BME280;57291;37.520;15.106;2022-11-20T11:45:26;100219.41;;;16.95;60.72
54556;BME280;57291;37.520;15.106;2022-11-20T11:47:55;100220.91;;;16.93;60.64
54556;BME280;57291;37.520;15.106;2022-11-20T11:50:25;100207.28;;;16.96;60.71
54556;BME280;57291;37.520;15.106;2022-11-20T11:55:31;100186.31;;;17.20;61.05
54556;BME280;57291;37.520;15.106;2022-11-20T11:58:14;100197.56;;;17.30;60.73
54556;BME280;57291;37.520;15.106;2022-11-20T12:01:00;100184.84;;;17.38;60.60
54556;BME280;57291;37.520;15.106;2022-11-20T12:03:38;100175.25;;;17.48;60.11
54556;BME280;57291;37.520;15.106;2022-11-20T12:06:15;100192.72;;;17.55;59.10
54556;BME280;57291;37.520;15.106;2022-11-20T12:09:00;100198.75;;;17.61;59.01
54556;BME280;57291;37.520;15.106;2022-11-20T12:11:45;100196.88;;;17.65;59.61
54556;BME280;57291;37.520;15.106;2022-11-20T12:14:36;100202.91;;;17.71;60.27
54556;BME280;57291;37.520;15.106;2022-11-20T12:17:04;100199.88;;;17.76;60.68
54556;BME280;57291;37.520;15.106;2022-11-20T12:19:34;100198.13;;;17.68;60.98
54556;BME280;57291;37.520;15.106;2022-11-20T12:22:21;100197.16;;;17.44;60.75
54556;BME280;57291;37.520;15.106;2022-11-20T12:25:07;100206.34;;;17.36;61.87
54556;BME280;57291;37.520;15.106;2022-11-20T12:30:16;100210.97;;;17.32;61.77
54556;BME280;57291;37.520;15.106;2022-11-20T12:38:43;100221.00;;;16.03;65.18
54556;BME280;57291;37.520;15.106;2022-11-20T12:53:36;100200.19;;;16.02;65.89
54556;BME280;57291;37.520;15.106;2022-11-20T13:01:58;100192.31;;;16.13;64.99
54556;BME280;57291;37.520;15.106;2022-11-20T13:07:06;100196.69;;;15.89;64.40
54556;BME280;57291;37.520;15.106;2022-11-20T13:09:42;100212.78;;;15.66;63.91
54556;BME280;57291;37.520;15.106;2022-11-20T13:20:15;100238.78;;;15.60;63.31
54556;BME280;57291;37.520;15.106;2022-11-20T13:22:52;100249.25;;;15.58;63.43
54556;BME280;57291;37.520;15.106;2022-11-20T13:25:29;100249.06;;;15.63;62.77
54556;BME280;57291;37.520;15.106;2022-11-20T13:28:01;100232.25;;;15.65;61.99
54556;BME280;57291;37.520;15.106;2022-11-20T13:30:33;100249.72;;;15.60;61.75
54556;BME280;57291;37.520;15.106;2022-11-20T13:33:08;100253.59;;;15.59;61.40
54556;BME280;57291;37.520;15.106;2022-11-20T13:35:41;100253.19;;;15.69;61.91
54556;BME280;57291;37.520;15.106;2022-11-20T13:40:52;100258.66;;;15.82;62.16
54556;BME280;57291;37.520;15.106;2022-11-20T13:43:42;100256.84;;;15.74;63.10
54556;BME280;57291;37.520;15.106;2022-11-20T13:46:11;100250.09;;;15.71;63.65
54556;BME280;57291;37.520;15.106;2022-11-20T13:48:45;100245.66;;;15.66;63.80
54556;BME280;57291;37.520;15.106;2022-11-20T14:02:16;100234.66;;;15.54;64.70
54556;BME280;57291;37.520;15.106;2022-11-20T14:04:54;100229.75;;;15.60;65.06
54556;BME280;57291;37.520;15.106;2022-11-20T14:07:34;100228.63;;;15.61;65.22
54556;BME280;57291;37.520;15.106;2022-11-20T14:10:04;100231.69;;;15.59;65.44
54556;BME280;57291;37.520;15.106;2022-11-20T14:12:33;100226.00;;;15.64;65.66
54556;BME280;57291;37.520;15.106;2022-11-20T14:15:01;100233.41;;;15.64;65.57
54556;BME280;57291;37.520;15.106;2022-11-20T14:20:05;100238.00;;;15.72;65.76
54556;BME280;57291;37.520;15.106;2022-11-20T14:22:33;100235.94;;;15.69;65.64
54556;BME280;57291;37.520;15.106;2022-11-20T14:27:54;100241.84;;;15.59;65.95
54556;BME280;57291;37.520;15.106;2022-11-20T14:30:24;100252.47;;;15.60;66.44
54556;BME280;57291;37.520;15.106;2022-11-20T14:33:00;100251.78;;;15.63;66.43
54556;BME280;57291;37.520;15.106;2022-11-20T14:35:35;100256.00;;;15.61;66.75
54556;BME280;57291;37.520;15.106;2022-11-20T14:38:04;100263.06;;;15.62;66.64
54556;BME280;57291;37.520;15.106;2022-11-20T14:40:37;100274.38;;;15.60;67.13
54556;BME280;57291;37.520;15.106;2022-11-20T14:43:24;100279.50;;;15.62;67.16
54556;BME280;57291;37.520;15.106;2022-11-20T14:46:13;100284.00;;;15.66;66.90